Time;durP1;ratioP1;P1;durP2;ratioP2;P2;SDS_P1;SDS_P2;PMS_P1;PMS_P2;Temp;Humidity;BMP_temperature;BMP_pressure;BME280_temperature;BME280_humidity;BME280_pressure;Samples;Min_cycle;Max_cycle;Signal;HPM_P1;HPM_P2
2021/10/31 00:02:15;;;;;;;8.88;5.93;;;;;;;11.69;88.38;100029.34;5028464;28;20049;-84
2021/10/31 00:04:41;;;;;;;7.10;6.18;;;;;;;11.67;88.75;100036.38;5028239;28;20060;-84
2021/10/31 00:07:08;;;;;;;6.32;5.32;;;;;;;11.66;88.76;100045.16;5030255;28;20195;-85
2021/10/31 00:09:35;;;;;;;5.97;5.07;;;;;;;11.62;88.55;100048.75;5030192;28;20872;-85
2021/10/31 00:12:02;;;;;;;9.05;5.95;;;;;;;11.52;88.70;100048.91;5018681;28;20053;-85
2021/10/31 00:14:29;;;;;;;9.13;6.97;;;;;;;11.45;89.32;100062.22;5026611;28;20049;-85
2021/10/31 00:16:58;;;;;;;7.97;6.32;;;;;;;11.40;90.22;100062.31;5016818;28;20516;-86
2021/10/31 00:19:29;;;;;;;6.47;5.18;;;;;;;11.41;90.03;100057.03;5040383;28;20037;-84
2021/10/31 00:21:57;;;;;;;7.22;5.93;;;;;;;11.41;90.17;100064.03;5028218;28;20650;-85
2021/10/31 00:24:24;;;;;;;8.68;5.78;;;;;;;11.46;90.16;100062.19;5016180;28;20053;-83
2021/10/31 00:26:51;;;;;;;8.70;6.57;;;;;;;11.51;90.01;100060.34;5025403;28;20120;-85
2021/10/31 00:29:17;;;;;;;8.50;6.50;;;;;;;11.56;89.77;100061.09;5029940;28;20055;-84
2021/10/31 00:31:45;;;;;;;7.65;6.28;;;;;;;11.58;89.67;100063.66;5014836;28;20999;-86
2021/10/31 00:34:12;;;;;;;8.43;6.43;;;;;;;11.61;90.10;100073.22;5027818;28;20045;-85
2021/10/31 00:36:38;;;;;;;7.78;5.78;;;;;;;11.64;89.77;100073.16;5015153;28;20088;-85
2021/10/31 00:39:06;;;;;;;7.97;6.10;;;;;;;11.67;89.51;100080.97;5028057;28;20484;-84
2021/10/31 00:41:34;;;;;;;9.00;6.82;;;;;;;11.68;89.16;100082.66;5023991;28;20040;-84
2021/10/31 00:44:00;;;;;;;8.48;6.80;;;;;;;11.71;89.15;100082.59;5025033;28;20499;-84
2021/10/31 00:46:27;;;;;;;9.07;6.13;;;;;;;11.72;89.04;100087.81;5028694;28;20692;-85
2021/10/31 00:48:54;;;;;;;9.55;6.78;;;;;;;11.74;88.97;100087.78;5014170;28;20507;-84
2021/10/31 00:51:20;;;;;;;8.63;6.97;;;;;;;11.72;89.09;100082.56;5019638;28;20037;-85
2021/10/31 00:53:49;;;;;;;7.75;5.95;;;;;;;11.71;89.04;100085.22;5022294;28;20126;-85
2021/10/31 00:56:15;;;;;;;8.35;7.00;;;;;;;11.71;89.32;100083.47;5019076;28;20064;-85
2021/10/31 00:58:42;;;;;;;8.02;6.97;;;;;;;11.71;89.47;100085.22;5026222;28;20053;-83
2021/10/31 01:01:08;;;;;;;8.20;6.55;;;;;;;11.72;89.47;100095.69;5041188;28;20120;-85
2021/10/31 01:03:35;;;;;;;8.93;6.88;;;;;;;11.71;89.19;100087.84;5029264;28;20370;-84
2021/10/31 01:06:37;;;;;;;7.93;5.95;;;;;;;11.74;89.36;100087.78;5031290;28;20044;-84
2021/10/31 01:09:16;;;;;;;8.77;6.20;;;;;;;11.71;89.27;100091.31;5016070;28;20041;-85
2021/10/31 01:12:11;;;;;;;9.90;7.38;;;;;;;11.72;89.37;100089.56;5012787;28;20061;-84
2021/10/31 01:15:01;;;;;;;8.85;6.68;;;;;;;11.72;89.71;100097.41;5029243;28;20115;-86
2021/10/31 01:17:57;;;;;;;7.20;6.35;;;;;;;11.72;89.29;100095.69;5045915;28;20037;-84
2021/10/31 01:20:44;;;;;;;9.90;7.20;;;;;;;11.72;89.61;100098.31;5016030;28;20048;-85
2021/10/31 01:23:45;;;;;;;8.02;7.07;;;;;;;11.70;89.89;100094.84;5026461;28;20049;-85
2021/10/31 01:27:01;;;;;;;13.25;8.85;;;;;;;11.66;89.58;100095.81;5016643;28;20060;-85
2021/10/31 01:29:43;;;;;;;8.80;6.68;;;;;;;11.62;90.03;100085.44;5030170;28;20052;-85
2021/10/31 01:32:32;;;;;;;9.52;7.13;;;;;;;11.61;89.99;100084.56;5018094;28;20059;-84
2021/10/31 01:35:28;;;;;;;10.30;7.85;;;;;;;11.61;89.94;100084.56;5010690;28;20055;-84
2021/10/31 01:38:18;;;;;;;8.38;7.30;;;;;;;11.62;90.16;100091.53;5048182;28;20053;-86
2021/10/31 01:41:23;;;;;;;8.70;6.90;;;;;;;11.63;89.76;100100.25;5010630;28;20053;-86
2021/10/31 01:44:30;;;;;;;9.38;7.18;;;;;;;11.58;90.30;100095.97;5017936;28;20131;-84
2021/10/31 01:47:30;;;;;;;8.48;6.45;;;;;;;11.54;90.84;100096.94;5049217;28;20037;-83
2021/10/31 01:50:27;;;;;;;8.45;7.55;;;;;;;11.51;90.95;100102.28;5044689;28;20051;-84
2021/10/31 01:53:07;;;;;;;11.02;7.90;;;;;;;11.47;90.80;100108.47;5016198;28;20054;-84
2021/10/31 01:55:41;;;;;;;10.20;7.43;;;;;;;11.44;91.28;100107.69;5018741;28;20053;-83
2021/10/31 01:58:11;;;;;;;9.90;7.80;;;;;;;11.42;91.28;100107.72;5046042;28;20049;-85
2021/10/31 02:00:38;;;;;;;10.50;7.63;;;;;;;11.39;91.54;100115.63;5016305;28;20049;-85
2021/10/31 02:03:06;;;;;;;12.93;8.75;;;;;;;11.34;91.70;100110.50;5016368;28;20047;-82
2021/10/31 02:05:37;;;;;;;12.80;7.32;;;;;;;11.26;92.26;100099.28;5037779;28;20199;-84
2021/10/31 02:08:11;;;;;;;11.05;8.90;;;;;;;11.19;92.48;100111.66;5019954;28;20110;-84
2021/10/31 02:10:41;;;;;;;11.30;7.90;;;;;;;11.12;92.89;100120.53;5037270;28;20138;-84
2021/10/31 02:13:14;;;;;;;9.25;7.80;;;;;;;11.04;93.25;100125.03;5005205;28;20059;-85
2021/10/31 02:15:48;;;;;;;11.80;7.60;;;;;;;10.95;93.87;100125.22;5020660;28;20049;-84
2021/10/31 02:18:19;;;;;;;13.35;8.75;;;;;;;10.91;94.48;100124.41;5033331;28;20535;-84
2021/10/31 02:20:49;;;;;;;11.65;7.82;;;;;;;10.88;94.60;100114.88;5032697;28;20049;-86
2021/10/31 02:23:17;;;;;;;12.85;9.68;;;;;;;10.86;95.18;100107.94;5055004;28;20077;-84
2021/10/31 02:25:44;;;;;;;10.73;8.15;;;;;;;10.85;95.20;100111.47;5013329;28;20106;-85
2021/10/31 02:28:11;;;;;;;11.52;7.60;;;;;;;10.84;95.46;100120.19;5034184;28;20509;-84
2021/10/31 02:30:38;;;;;;;8.52;6.63;;;;;;;10.86;95.14;100121.03;5035564;28;20518;-83
2021/10/31 02:33:06;;;;;;;16.73;8.63;;;;;;;10.87;95.25;100121.00;5031624;28;20152;-84
2021/10/31 02:35:33;;;;;;;10.02;7.72;;;;;;;11.00;95.56;100126.00;5031258;28;20488;-85
2021/10/31 02:38:00;;;;;;;12.00;8.50;;;;;;;11.10;95.08;100135.41;5011331;28;20098;-86
2021/10/31 02:40:27;;;;;;;11.48;7.72;;;;;;;11.20;94.49;100139.59;5036206;28;20546;-83
2021/10/31 02:42:55;;;;;;;9.93;7.60;;;;;;;11.29;93.89;100146.41;5034149;28;20143;-83
2021/10/31 02:45:22;;;;;;;10.07;7.63;;;;;;;11.35;93.94;100141.00;5046077;28;21487;-86
2021/10/31 02:48:20;;;;;;;7.80;6.90;;;;;;;11.38;93.77;100138.34;5033217;28;20052;-83
2021/10/31 02:50:48;;;;;;;10.55;8.05;;;;;;;11.40;93.63;100147.03;5005321;28;20128;-85
2021/10/31 02:53:38;;;;;;;10.00;7.85;;;;;;;11.40;93.60;100147.03;5015870;28;20054;-84
2021/10/31 02:56:35;;;;;;;10.73;8.20;;;;;;;11.40;93.39;100144.41;5020561;28;20191;-85
2021/10/31 02:59:48;;;;;;;9.77;7.07;;;;;;;11.36;93.49;100150.59;5035504;28;20080;-86
2021/10/31 03:02:16;;;;;;;10.80;7.45;;;;;;;11.30;93.70;100140.25;4924309;28;20057;-83
2021/10/31 03:04:44;;;;;;;11.35;8.48;;;;;;;11.23;94.30;100142.13;4904752;29;20048;-84
2021/10/31 03:07:17;;;;;;;11.70;9.07;;;;;;;11.20;94.40;100147.44;4950164;28;20130;-85
2021/10/31 03:09:48;;;;;;;11.35;8.32;;;;;;;11.14;94.53;100149.31;5019405;28;20455;-84
2021/10/31 03:12:15;;;;;;;11.88;8.43;;;;;;;11.05;94.72;100151.22;5024593;28;20049;-84
2021/10/31 03:14:42;;;;;;;13.55;9.93;;;;;;;10.97;94.89;100147.03;5025148;28;21744;-84
2021/10/31 03:17:08;;;;;;;11.48;8.90;;;;;;;10.86;95.53;100149.81;5011100;28;20046;-84
2021/10/31 03:19:36;;;;;;;10.45;8.02;;;;;;;10.79;96.07;100151.69;4998144;28;20045;-85
2021/10/31 03:22:05;;;;;;;11.30;8.88;;;;;;;10.79;96.50;100159.53;5012148;28;20046;-84
2021/10/31 03:24:32;;;;;;;13.35;8.48;;;;;;;10.86;96.66;100158.56;5024335;28;21471;-84
2021/10/31 03:26:59;;;;;;;10.85;8.20;;;;;;;10.92;96.19;100161.06;4997806;28;20041;-85
2021/10/31 03:29:26;;;;;;;11.95;8.98;;;;;;;11.00;95.86;100162.66;5010834;28;20061;-85
2021/10/31 03:31:54;;;;;;;10.48;8.27;;;;;;;11.06;95.46;100168.66;5015725;28;20049;-84
2021/10/31 03:34:21;;;;;;;13.15;9.18;;;;;;;11.13;95.03;100174.63;5020299;28;20054;-83
2021/10/31 03:36:49;;;;;;;10.02;8.27;;;;;;;11.20;95.13;100175.41;5020970;28;20053;-84
2021/10/31 03:39:18;;;;;;;13.32;9.77;;;;;;;11.24;94.45;100182.31;5024334;28;20061;-83
2021/10/31 03:41:46;;;;;;;12.85;9.55;;;;;;;11.28;94.08;100183.97;4994996;28;20643;-83
2021/10/31 03:44:18;;;;;;;11.98;8.57;;;;;;;11.33;94.19;100178.63;5031846;28;20128;-85
2021/10/31 03:46:45;;;;;;;11.15;7.90;;;;;;;11.35;93.81;100188.19;5007029;28;20786;-84
2021/10/31 03:49:15;;;;;;;11.02;8.27;;;;;;;11.35;93.95;100182.09;5024974;28;20046;-84
2021/10/31 03:51:43;;;;;;;13.10;8.35;;;;;;;11.35;93.76;100190.81;4997194;28;20059;-85
2021/10/31 03:54:09;;;;;;;11.63;8.23;;;;;;;11.34;93.79;100186.47;5013342;28;20054;-83
2021/10/31 03:56:36;;;;;;;12.43;8.88;;;;;;;11.33;93.64;100189.09;5010248;28;20132;-82
2021/10/31 03:59:02;;;;;;;9.63;7.88;;;;;;;11.32;93.75;100187.41;5013049;28;20042;-85
2021/10/31 04:01:32;;;;;;;9.70;7.65;;;;;;;11.31;93.85;100191.75;4998286;28;20050;-86
2021/10/31 04:04:02;;;;;;;11.48;8.80;;;;;;;11.30;93.93;100192.66;4978410;28;20057;-85
2021/10/31 04:06:31;;;;;;;12.38;8.35;;;;;;;11.31;94.05;100204.00;5016258;28;20057;-84
2021/10/31 04:08:58;;;;;;;11.43;8.88;;;;;;;11.31;94.35;100191.75;5030086;28;20108;-83
2021/10/31 04:11:25;;;;;;;12.68;9.77;;;;;;;11.33;93.97;100197.84;4999850;28;20045;-85
2021/10/31 04:13:51;;;;;;;13.70;9.93;;;;;;;11.31;93.75;100183.91;4995958;28;20133;-85
2021/10/31 04:16:18;;;;;;;11.68;9.13;;;;;;;11.32;93.75;100190.03;4995035;28;20038;-85
2021/10/31 04:18:44;;;;;;;12.25;9.90;;;;;;;11.30;93.83;100187.41;4993774;28;20518;-83
2021/10/31 04:21:13;;;;;;;11.20;9.00;;;;;;;11.28;94.00;100193.56;4995971;28;20048;-84
2021/10/31 04:23:40;;;;;;;12.68;9.50;;;;;;;11.27;94.17;100195.34;5015753;28;20108;-84
2021/10/31 04:26:06;;;;;;;9.77;8.13;;;;;;;11.27;94.36;100210.22;5005299;28;20050;-83
2021/10/31 04:28:33;;;;;;;10.82;9.07;;;;;;;11.24;94.30;100209.38;5016655;28;20056;-84
2021/10/31 04:30:59;;;;;;;14.13;8.88;;;;;;;11.26;94.60;100214.56;5010754;28;20068;-83
2021/10/31 04:33:26;;;;;;;14.40;10.20;;;;;;;11.27;94.45;100215.44;5010218;28;20692;-85
2021/10/31 04:35:53;;;;;;;15.90;11.23;;;;;;;11.29;94.34;100218.88;5009411;28;20066;-85
2021/10/31 04:38:24;;;;;;;13.68;9.98;;;;;;;11.28;94.64;100211.91;5031343;28;21798;-86
2021/10/31 04:40:51;;;;;;;12.48;10.00;;;;;;;11.26;94.51;100214.56;5027212;28;20045;-85
2021/10/31 04:43:18;;;;;;;15.75;10.48;;;;;;;11.22;94.74;100199.81;4996211;28;21842;-84
2021/10/31 04:45:45;;;;;;;10.48;9.20;;;;;;;11.20;94.70;100199.00;5016790;28;20049;-86
2021/10/31 04:48:13;;;;;;;9.93;8.93;;;;;;;11.12;94.99;100201.75;5013271;28;20670;-86
2021/10/31 04:50:41;;;;;;;10.90;9.50;;;;;;;11.03;94.75;100204.50;5015110;28;20061;-85
2021/10/31 04:53:10;;;;;;;15.77;9.10;;;;;;;10.90;95.52;100193.41;5007757;28;22143;-83
2021/10/31 04:55:41;;;;;;;10.95;8.60;;;;;;;10.73;96.03;100184.09;5006447;28;20084;-84
2021/10/31 04:58:10;;;;;;;14.55;10.00;;;;;;;10.54;96.90;100185.28;5013363;28;20053;-85
2021/10/31 05:00:38;;;;;;;12.63;9.98;;;;;;;10.36;97.95;100187.28;5011463;28;20064;-83
2021/10/31 05:03:04;;;;;;;13.38;10.35;;;;;;;10.20;98.75;100191.88;5034304;28;20046;-83
2021/10/31 05:05:33;;;;;;;13.90;9.50;;;;;;;10.10;99.81;100191.16;5012106;28;20073;-84
2021/10/31 05:08:01;;;;;;;13.32;10.95;;;;;;;10.00;100.00;100191.28;5015238;28;20045;-85
2021/10/31 05:10:28;;;;;;;12.00;9.05;;;;;;;9.88;100.00;100193.22;5011236;28;20053;-83
2021/10/31 05:12:55;;;;;;;15.20;9.90;;;;;;;9.80;100.00;100186.34;5016027;28;20480;-83
2021/10/31 05:15:22;;;;;;;14.52;10.40;;;;;;;9.70;100.00;100183.84;5015352;28;20045;-85
2021/10/31 05:17:49;;;;;;;17.10;11.93;;;;;;;9.64;100.00;100183.06;5013164;28;20053;-84
2021/10/31 05:20:17;;;;;;;19.13;12.00;;;;;;;9.62;100.00;100177.88;5028051;28;20044;-84
2021/10/31 05:22:44;;;;;;;16.05;11.40;;;;;;;9.58;100.00;100179.66;5013736;28;20111;-83
2021/10/31 05:25:13;;;;;;;15.57;11.30;;;;;;;9.57;100.00;100175.31;5017885;28;20057;-85
2021/10/31 05:27:46;;;;;;;15.30;11.68;;;;;;;9.55;100.00;100177.06;5035344;28;20210;-84
2021/10/31 05:30:14;;;;;;;16.67;11.35;;;;;;;9.53;100.00;100183.19;5033402;28;20037;-85
2021/10/31 05:32:43;;;;;;;17.85;11.82;;;;;;;9.50;100.00;100173.63;5028492;28;20052;-84
2021/10/31 05:35:12;;;;;;;16.08;11.57;;;;;;;9.49;100.00;100176.28;5024883;28;20432;-84
2021/10/31 05:37:42;;;;;;;12.95;9.73;;;;;;;9.44;100.00;100177.19;5028242;28;20083;-85
2021/10/31 05:40:13;;;;;;;18.00;12.63;;;;;;;9.40;100.00;100169.44;5016614;28;20524;-84
2021/10/31 05:42:41;;;;;;;20.25;12.38;;;;;;;9.40;100.00;100166.81;5028469;28;20057;-85
2021/10/31 05:45:11;;;;;;;16.13;12.38;;;;;;;9.35;100.00;100169.47;5032590;28;20053;-84
2021/10/31 05:47:44;;;;;;;16.38;12.07;;;;;;;9.30;100.00;100176.50;5016665;28;20127;-83
2021/10/31 05:50:15;;;;;;;14.90;10.88;;;;;;;9.24;100.00;100182.66;5018792;28;20049;-84
2021/10/31 05:52:43;;;;;;;19.73;13.27;;;;;;;9.22;100.00;100196.63;5023819;28;20500;-85
2021/10/31 05:55:12;;;;;;;12.85;10.88;;;;;;;9.19;100.00;100200.13;5015433;28;20044;-84
2021/10/31 05:57:39;;;;;;;18.95;12.85;;;;;;;9.20;100.00;100209.66;5030668;28;20495;-85
2021/10/31 06:00:09;;;;;;;20.92;14.48;;;;;;;9.21;100.00;100198.34;5020491;28;20552;-83
2021/10/31 06:02:36;;;;;;;22.15;14.75;;;;;;;9.27;100.00;100193.06;5030618;28;20053;-83
2021/10/31 06:05:05;;;;;;;19.45;14.13;;;;;;;9.32;100.00;100198.25;5015727;28;20810;-84
2021/10/31 06:07:32;;;;;;;24.88;15.50;;;;;;;9.36;100.00;100199.06;5029235;28;20053;-84
2021/10/31 06:10:00;;;;;;;23.40;15.55;;;;;;;9.39;100.00;100199.91;5013448;28;20048;-84
2021/10/31 06:12:26;;;;;;;24.05;14.48;;;;;;;9.41;100.00;100202.50;5032425;28;20073;-84
2021/10/31 06:14:53;;;;;;;18.77;13.60;;;;;;;9.43;100.00;100206.81;5012056;28;20060;-83
2021/10/31 06:17:20;;;;;;;27.05;13.82;;;;;;;9.43;100.00;100198.13;5030958;28;20060;-83
2021/10/31 06:19:47;;;;;;;21.35;13.90;;;;;;;9.42;100.00;100210.31;5028957;28;20492;-85
2021/10/31 06:22:13;;;;;;;20.23;13.88;;;;;;;9.41;100.00;100205.09;5027533;28;20045;-85
2021/10/31 06:24:40;;;;;;;23.50;15.02;;;;;;;9.41;100.00;100210.31;5029523;28;20053;-83
2021/10/31 06:27:07;;;;;;;25.17;15.55;;;;;;;9.42;100.00;100212.06;5043024;28;20049;-85
2021/10/31 06:29:34;;;;;;;24.88;15.93;;;;;;;9.42;100.00;100209.44;5028817;28;20138;-85
2021/10/31 06:32:01;;;;;;;22.88;13.55;;;;;;;9.41;100.00;100203.38;5012223;28;20973;-82
2021/10/31 06:34:27;;;;;;;20.98;13.55;;;;;;;9.42;100.00;100207.69;5018673;28;20049;-85
2021/10/31 06:36:57;;;;;;;21.63;14.55;;;;;;;9.43;100.00;100204.19;5010170;28;20120;-83
2021/10/31 06:39:24;;;;;;;19.17;13.63;;;;;;;9.47;100.00;100212.03;5019815;28;20041;-84
2021/10/31 06:41:51;;;;;;;18.15;14.45;;;;;;;9.50;100.00;100218.06;5021912;28;20080;-86
2021/10/31 06:44:20;;;;;;;16.15;12.07;;;;;;;9.54;100.00;100219.78;5029802;28;20080;-83
2021/10/31 06:46:47;;;;;;;17.73;12.77;;;;;;;9.57;100.00;100208.41;5033817;28;20059;-86
2021/10/31 06:49:13;;;;;;;18.90;13.43;;;;;;;9.63;100.00;100221.38;5032714;28;20054;-84
2021/10/31 06:51:40;;;;;;;23.02;15.98;;;;;;;9.70;100.00;100212.59;5021462;28;20048;-84
2021/10/31 06:54:08;;;;;;;18.75;13.45;;;;;;;9.77;100.00;100216.84;5038090;28;20060;-84
2021/10/31 06:56:34;;;;;;;18.10;13.13;;;;;;;9.84;100.00;100222.00;5019448;28;20053;-85
2021/10/31 06:59:02;;;;;;;19.40;13.10;;;;;;;9.90;100.00;100229.78;5023796;28;20045;-84
2021/10/31 07:01:29;;;;;;;17.65;12.85;;;;;;;9.97;100.00;100220.09;5025189;28;20117;-85
2021/10/31 07:03:55;;;;;;;21.23;15.35;;;;;;;10.02;100.00;100216.53;5031803;28;21127;-85
2021/10/31 07:06:22;;;;;;;20.35;14.45;;;;;;;10.07;100.00;100216.47;5010368;28;20045;-85
2021/10/31 07:08:49;;;;;;;20.20;13.98;;;;;;;10.13;100.00;100210.28;5033872;28;20955;-83
2021/10/31 07:11:16;;;;;;;18.65;14.02;;;;;;;10.17;100.00;100210.25;5033628;28;20122;-85
2021/10/31 07:13:42;;;;;;;19.50;13.82;;;;;;;10.22;100.00;100210.16;5041899;28;20050;-84
2021/10/31 07:16:09;;;;;;;20.80;14.25;;;;;;;10.25;100.00;100205.75;5019431;28;20633;-84
2021/10/31 07:18:36;;;;;;;17.80;13.00;;;;;;;10.29;100.00;100201.34;5031657;28;20037;-83
2021/10/31 07:21:03;;;;;;;18.70;13.13;;;;;;;10.32;100.00;100201.28;5017054;28;20055;-84
2021/10/31 07:23:29;;;;;;;14.65;12.85;;;;;;;10.33;100.00;100200.41;5028262;28;20048;-83
2021/10/31 07:25:57;;;;;;;16.52;12.73;;;;;;;10.33;100.00;100196.94;5027644;28;20052;-83
2021/10/31 07:28:24;;;;;;;17.85;12.73;;;;;;;10.34;100.00;100201.25;5029730;28;20124;-83
2021/10/31 07:30:53;;;;;;;17.30;13.60;;;;;;;10.35;100.00;100195.13;5029209;28;20132;-84
2021/10/31 07:33:20;;;;;;;21.83;13.65;;;;;;;10.36;100.00;100207.38;5025688;28;20510;-84
2021/10/31 07:35:47;;;;;;;16.73;12.70;;;;;;;10.37;100.00;100203.88;5034411;28;20045;-85
2021/10/31 07:38:14;;;;;;;17.35;13.23;;;;;;;10.37;100.00;100209.09;5032737;28;20862;-83
2021/10/31 07:40:40;;;;;;;17.67;13.52;;;;;;;10.35;100.00;100203.91;5027085;28;20628;-83
2021/10/31 07:43:07;;;;;;;18.85;12.70;;;;;;;10.34;100.00;100210.00;5018969;28;20054;-86
2021/10/31 07:45:34;;;;;;;15.18;11.13;;;;;;;10.34;100.00;100212.59;5013143;28;20061;-84
2021/10/31 07:48:01;;;;;;;17.30;12.73;;;;;;;10.34;100.00;100212.59;5028966;28;20514;-85
2021/10/31 07:50:34;;;;;;;16.80;12.02;;;;;;;10.35;100.00;100211.75;5013148;28;20048;-85
2021/10/31 07:53:05;;;;;;;15.77;11.85;;;;;;;10.37;100.00;100220.44;5014019;28;20581;-84
2021/10/31 07:55:34;;;;;;;14.43;11.30;;;;;;;10.39;100.00;100208.19;5013693;28;20726;-85
2021/10/31 07:58:03;;;;;;;17.13;12.95;;;;;;;10.43;100.00;100209.88;5046511;28;20076;-84
2021/10/31 08:00:30;;;;;;;15.93;12.25;;;;;;;10.45;100.00;100202.00;5020081;28;20052;-86
2021/10/31 08:02:58;;;;;;;19.60;13.05;;;;;;;10.50;100.00;100209.78;5026001;28;20127;-84
2021/10/31 08:05:26;;;;;;;15.27;11.23;;;;;;;10.52;100.00;100211.50;5004883;28;20068;-84
2021/10/31 08:07:54;;;;;;;15.77;12.02;;;;;;;10.57;100.00;100214.91;5018980;28;20049;-85
2021/10/31 08:10:22;;;;;;;15.98;11.43;;;;;;;10.66;100.00;100208.63;5031799;28;20052;-86
2021/10/31 08:12:49;;;;;;;15.45;11.82;;;;;;;10.76;100.00;100198.88;5013800;28;20045;-84
2021/10/31 08:15:16;;;;;;;16.23;12.20;;;;;;;10.85;100.00;100182.16;5027971;28;21006;-85
2021/10/31 08:17:42;;;;;;;14.90;11.70;;;;;;;10.93;100.00;100188.97;5018400;28;20053;-86
2021/10/31 08:20:10;;;;;;;18.10;13.98;;;;;;;10.99;100.00;100184.50;5015602;28;20056;-86
2021/10/31 08:22:37;;;;;;;17.13;12.10;;;;;;;11.01;100.00;100174.88;5034298;28;20676;-85
2021/10/31 08:25:05;;;;;;;19.95;11.77;;;;;;;11.04;100.00;100164.34;5051245;28;20693;-86
2021/10/31 08:27:33;;;;;;;15.73;11.05;;;;;;;11.07;100.00;100161.69;5012730;28;20109;-86
2021/10/31 08:30:00;;;;;;;14.63;11.20;;;;;;;11.09;100.00;100160.75;5018359;28;20202;-85
2021/10/31 08:32:28;;;;;;;14.10;11.15;;;;;;;11.14;100.00;100158.03;5013705;28;20499;-86
2021/10/31 08:34:55;;;;;;;13.43;10.48;;;;;;;11.23;100.00;100157.00;5018119;28;20049;-85
2021/10/31 08:37:22;;;;;;;16.20;12.65;;;;;;;11.37;100.00;100162.81;5027544;28;20049;-84
2021/10/31 08:39:49;;;;;;;15.75;12.02;;;;;;;11.50;100.00;100152.06;5042320;28;20049;-84
2021/10/31 08:42:16;;;;;;;12.63;10.65;;;;;;;11.66;100.00;100152.63;5018442;28;20052;-85
2021/10/31 08:44:44;;;;;;;14.45;10.93;;;;;;;11.82;99.62;100147.91;5015848;28;20049;-84
2021/10/31 08:47:10;;;;;;;12.88;10.43;;;;;;;11.98;98.76;100143.22;5020098;28;20049;-83
2021/10/31 08:49:37;;;;;;;18.98;12.75;;;;;;;12.15;97.97;100141.06;5030990;28;20060;-84
2021/10/31 08:52:07;;;;;;;14.60;11.50;;;;;;;12.31;96.93;100138.94;5036520;28;20045;-84
2021/10/31 08:54:39;;;;;;;13.63;10.93;;;;;;;12.46;96.22;100145.56;5034875;28;20048;-84
2021/10/31 08:57:07;;;;;;;12.30;10.20;;;;;;;12.60;95.54;100144.38;5018280;28;20049;-83
2021/10/31 08:59:37;;;;;;;14.10;10.23;;;;;;;12.74;94.83;100140.47;5031797;28;20040;-84
2021/10/31 09:02:05;;;;;;;14.40;10.57;;;;;;;12.88;94.45;100136.59;5018655;28;20047;-85
2021/10/31 09:04:33;;;;;;;13.88;10.65;;;;;;;12.93;92.91;100128.63;5031115;28;20080;-86
2021/10/31 09:06:59;;;;;;;14.57;10.27;;;;;;;12.99;93.25;100117.94;5030470;28;20045;-85
2021/10/31 09:09:26;;;;;;;13.55;10.88;;;;;;;13.07;92.58;100119.47;5019060;28;20074;-86
2021/10/31 09:11:53;;;;;;;11.63;10.07;;;;;;;13.14;92.28;100120.16;5030470;28;20528;-83
2021/10/31 09:14:20;;;;;;;13.15;9.57;;;;;;;13.22;92.42;100112.03;5050491;28;20083;-85
2021/10/31 09:16:48;;;;;;;12.70;9.95;;;;;;;13.28;91.47;100095.22;5036292;28;20049;-85
2021/10/31 09:19:17;;;;;;;12.63;10.45;;;;;;;13.35;91.07;100102.91;5017838;28;20044;-85
2021/10/31 09:21:46;;;;;;;11.48;10.05;;;;;;;13.37;91.05;100108.97;5031760;28;20044;-84
2021/10/31 09:24:13;;;;;;;12.65;10.75;;;;;;;13.42;90.67;100111.50;5043236;28;20486;-85
2021/10/31 09:26:40;;;;;;;15.25;11.30;;;;;;;13.42;90.90;100097.50;5036089;28;20068;-83
2021/10/31 09:29:07;;;;;;;9.57;7.82;;;;;;;13.45;90.95;100100.88;5017592;28;20042;-83
2021/10/31 09:31:34;;;;;;;12.60;9.85;;;;;;;13.59;90.85;100094.34;5011960;28;20041;-85
2021/10/31 09:34:01;;;;;;;13.63;9.90;;;;;;;13.72;90.45;100090.44;5016525;28;20068;-86
2021/10/31 09:36:34;;;;;;;14.57;9.15;;;;;;;13.79;88.89;100097.22;4993542;28;20056;-85
2021/10/31 09:39:07;;;;;;;9.13;7.78;;;;;;;13.81;89.23;100091.94;5034435;28;20041;-85
2021/10/31 09:41:36;;;;;;;8.60;7.60;;;;;;;13.83;89.09;100090.97;5033711;28;20385;-85
2021/10/31 09:44:13;;;;;;;10.02;8.77;;;;;;;13.84;88.78;100097.94;5019939;28;20065;-85
2021/10/31 09:46:42;;;;;;;8.35;7.55;;;;;;;13.87;88.63;100092.59;5034295;28;20059;-83
2021/10/31 09:49:11;;;;;;;8.68;7.00;;;;;;;13.94;88.38;100084.50;5027195;28;20546;-85
2021/10/31 09:51:40;;;;;;;11.07;8.70;;;;;;;13.99;87.81;100085.22;5034771;28;20069;-85
2021/10/31 09:54:09;;;;;;;9.30;7.90;;;;;;;14.04;87.92;100078.88;5029635;28;20044;-84
2021/10/31 09:56:38;;;;;;;9.32;7.40;;;;;;;14.10;87.78;100072.56;5015283;28;20130;-84
2021/10/31 09:59:11;;;;;;;8.05;7.00;;;;;;;14.17;87.53;100081.09;5033548;28;20060;-85
2021/10/31 10:02:08;;;;;;;9.68;6.63;;;;;;;14.26;86.98;100086.06;5021345;28;20083;-87
2021/10/31 10:04:42;;;;;;;6.72;6.13;;;;;;;14.33;85.88;100082.31;5035876;28;20063;-87
2021/10/31 10:07:12;;;;;;;5.35;4.72;;;;;;;14.41;85.67;100078.59;5036231;28;20133;-84
2021/10/31 10:09:52;;;;;;;5.82;5.20;;;;;;;14.48;84.54;100083.56;5035008;28;20053;-86
2021/10/31 10:12:19;;;;;;;5.65;5.18;;;;;;;14.54;83.30;100077.25;5016792;28;20161;-85
2021/10/31 10:15:00;;;;;;;5.00;4.63;;;;;;;14.70;83.44;100085.50;5017361;28;20059;-85
2021/10/31 10:17:28;;;;;;;4.35;4.05;;;;;;;14.83;82.33;100085.91;5047018;28;20120;-85
2021/10/31 10:19:59;;;;;;;6.00;3.63;;;;;;;14.88;81.78;100090.09;5022272;28;20204;-86
2021/10/31 10:22:28;;;;;;;3.42;3.13;;;;;;;14.94;81.92;100086.41;5026779;28;20041;-86
2021/10/31 10:25:01;;;;;;;4.35;3.92;;;;;;;15.09;80.01;100078.84;5023929;28;20119;-85
2021/10/31 10:27:35;;;;;;;4.55;3.30;;;;;;;15.34;80.02;100076.16;5041491;28;20374;-87
2021/10/31 10:30:15;;;;;;;3.95;3.65;;;;;;;15.67;77.83;100071.34;5022337;28;20056;-86
2021/10/31 10:32:57;;;;;;;3.05;2.78;;;;;;;15.85;77.12;100074.19;5018705;28;20110;-83
2021/10/31 10:35:30;;;;;;;3.05;2.67;;;;;;;15.94;76.60;100062.41;5033825;28;20045;-83
2021/10/31 10:37:58;;;;;;;2.70;2.50;;;;;;;15.99;75.90;100063.94;5022060;28;20041;-84
2021/10/31 10:40:29;;;;;;;3.65;2.92;;;;;;;16.03;75.54;100067.31;5036457;28;20064;-86
2021/10/31 10:43:00;;;;;;;3.17;2.97;;;;;;;16.12;74.34;100072.22;5063837;28;20091;-83
2021/10/31 10:45:31;;;;;;;2.45;2.28;;;;;;;16.11;73.56;100053.78;5032101;28;20045;-85
2021/10/31 10:48:08;;;;;;;4.05;2.53;;;;;;;16.15;74.79;100065.94;5062045;28;20087;-85
2021/10/31 10:50:42;;;;;;;3.17;2.85;;;;;;;16.14;73.03;100064.22;5026606;28;20064;-83
2021/10/31 10:53:23;;;;;;;3.55;3.25;;;;;;;16.14;73.99;100046.63;5021534;28;20048;-83
2021/10/31 10:55:50;;;;;;;2.70;2.50;;;;;;;16.17;73.87;100043.00;5025619;28;20180;-84
2021/10/31 10:58:19;;;;;;;4.78;3.00;;;;;;;16.20;74.49;100024.38;5020200;28;20148;-85
2021/10/31 11:00:52;;;;;;;3.65;3.35;;;;;;;16.20;74.14;100017.31;5036839;28;20101;-86
2021/10/31 11:03:30;;;;;;;3.35;3.05;;;;;;;16.11;74.04;100015.03;5048952;28;20056;-87
2021/10/31 11:06:05;;;;;;;2.97;2.78;;;;;;;16.00;74.57;100010.22;5042442;28;20825;-82
2021/10/31 11:08:32;;;;;;;3.15;2.95;;;;;;;15.92;75.42;99999.13;5022612;28;20049;-87
2021/10/31 11:11:10;;;;;;;5.70;3.20;;;;;;;15.90;75.07;99998.31;5030635;28;20844;-85
2021/10/31 11:13:51;;;;;;;2.55;2.35;;;;;;;15.88;75.65;99995.75;5054739;28;20064;-85
2021/10/31 11:16:23;;;;;;;2.85;2.55;;;;;;;15.95;75.88;99985.78;5041126;28;20050;-86
2021/10/31 11:18:53;;;;;;;3.10;2.70;;;;;;;16.01;75.67;99989.97;5041812;28;20049;-85
2021/10/31 11:21:24;;;;;;;2.92;2.72;;;;;;;16.06;75.64;99982.72;5047438;28;20125;-86
2021/10/31 11:23:54;;;;;;;3.60;3.10;;;;;;;16.09;75.00;99986.97;5050907;28;20049;-84
2021/10/31 11:26:26;;;;;;;3.42;3.10;;;;;;;16.14;75.06;99985.00;5027540;28;20131;-86
2021/10/31 11:28:56;;;;;;;3.30;2.85;;;;;;;16.16;75.10;99976.09;5052160;28;20041;-84
2021/10/31 11:31:23;;;;;;;5.75;3.50;;;;;;;16.21;75.05;99971.47;5051679;28;20168;-85
2021/10/31 11:33:54;;;;;;;3.05;2.83;;;;;;;16.32;74.69;99968.38;5049468;28;20041;-86